createdAt,value
2022-10-09T00:00:06.854Z,56.56
2022-10-09T00:01:06.846Z,55.75
2022-10-09T00:02:06.863Z,55.75
2022-10-09T00:03:06.799Z,57.69
2022-10-09T00:04:06.797Z,57.52
2022-10-09T00:05:06.853Z,54.95
2022-10-09T00:06:06.768Z,58.01
2022-10-09T00:07:06.775Z,58.01
2022-10-09T00:08:06.746Z,55.59
2022-10-09T00:09:06.734Z,55.91
2022-10-09T00:10:06.715Z,58.17
2022-10-09T00:11:06.728Z,54.62
2022-10-09T00:12:06.723Z,53.33
2022-10-09T00:13:06.691Z,54.30
2022-10-09T00:14:06.666Z,57.04
2022-10-09T00:15:06.658Z,55.59
2022-10-09T00:16:06.655Z,55.75
2022-10-09T00:17:06.716Z,56.56
2022-10-09T00:18:06.638Z,55.75
2022-10-09T00:19:06.629Z,56.88
2022-10-09T00:20:06.618Z,57.04
2022-10-09T00:21:06.608Z,55.75
2022-10-09T00:22:06.607Z,55.75
2022-10-09T00:23:06.584Z,55.75
2022-10-09T00:24:06.572Z,56.24
2022-10-09T00:25:06.566Z,57.52
2022-10-09T00:26:06.548Z,56.40
2022-10-09T00:27:06.554Z,54.30
2022-10-09T00:28:06.606Z,54.30
2022-10-09T00:29:06.519Z,57.85
2022-10-09T00:30:06.514Z,54.14
2022-10-09T00:31:06.555Z,52.53
2022-10-09T00:32:06.510Z,54.14
2022-10-09T00:33:06.480Z,53.17
2022-10-09T00:34:06.466Z,57.36
2022-10-09T00:35:06.461Z,55.75
2022-10-09T00:36:06.461Z,52.37
2022-10-09T00:37:06.433Z,53.50
2022-10-09T00:38:06.426Z,56.40
2022-10-09T00:39:06.418Z,53.66
2022-10-09T00:40:06.408Z,53.01
2022-10-09T00:41:06.386Z,52.21
2022-10-09T00:42:06.398Z,53.82
2022-10-09T00:43:06.377Z,53.01
2022-10-09T00:44:06.364Z,53.82
2022-10-09T00:45:06.345Z,53.33
2022-10-09T00:46:06.398Z,53.50
2022-10-09T00:47:06.348Z,53.01
2022-10-09T00:48:06.317Z,53.33
2022-10-09T00:49:06.309Z,54.79
2022-10-09T00:50:06.300Z,53.82
2022-10-09T00:51:06.286Z,54.79
2022-10-09T00:52:06.298Z,53.82
2022-10-09T00:53:06.263Z,54.46
2022-10-09T00:54:06.261Z,53.50
2022-10-09T00:55:06.251Z,52.53
2022-10-09T00:56:06.241Z,55.27
2022-10-09T00:57:06.240Z,53.50
2022-10-09T00:58:06.220Z,55.27
2022-10-09T00:59:06.208Z,52.53
2022-10-09T01:00:06.195Z,53.98
2022-10-09T01:01:07.231Z,53.33
2022-10-09T01:02:06.243Z,54.30
2022-10-09T01:03:06.162Z,54.30
2022-10-09T01:04:06.157Z,53.33
2022-10-09T01:05:06.136Z,53.66
2022-10-09T01:06:06.135Z,52.85
2022-10-09T01:07:06.145Z,54.46
2022-10-09T01:08:06.116Z,54.79
2022-10-09T01:09:06.093Z,54.30
2022-10-09T01:10:06.100Z,55.11
2022-10-09T01:11:06.095Z,53.82
2022-10-09T01:12:06.095Z,54.62
2022-10-09T01:13:06.063Z,53.82
2022-10-09T01:14:06.054Z,53.66
2022-10-09T01:15:06.048Z,54.46
2022-10-09T01:16:06.080Z,55.75
2022-10-09T01:17:06.036Z,56.07
2022-10-09T01:18:06.012Z,54.79
2022-10-09T01:19:06.003Z,53.82
2022-10-09T01:20:05.995Z,56.07
2022-10-09T01:21:05.971Z,55.27
2022-10-09T01:22:05.980Z,54.62
2022-10-09T01:23:05.957Z,52.69
2022-10-09T01:24:05.952Z,52.69
2022-10-09T01:25:05.943Z,53.33
2022-10-09T01:26:05.929Z,53.82
2022-10-09T01:27:05.954Z,54.30
2022-10-09T01:28:05.960Z,56.40
2022-10-09T01:29:06.884Z,56.72
2022-10-09T01:30:05.896Z,55.43
2022-10-09T01:31:05.980Z,55.59
2022-10-09T01:32:05.873Z,54.79
2022-10-09T01:33:06.852Z,56.72
2022-10-09T01:34:05.846Z,54.95
2022-10-09T01:35:05.854Z,55.91
2022-10-09T01:36:05.842Z,52.85
2022-10-09T01:37:05.825Z,52.69
2022-10-09T01:38:05.817Z,52.05
2022-10-09T01:39:05.833Z,53.66
2022-10-09T01:40:05.788Z,56.72
2022-10-09T01:41:05.806Z,56.72
2022-10-09T01:42:05.787Z,54.62
2022-10-09T01:43:05.759Z,54.46
2022-10-09T01:44:05.761Z,53.33
2022-10-09T01:45:05.739Z,54.79
2022-10-09T01:46:05.782Z,54.30
2022-10-09T01:47:05.750Z,53.66
2022-10-09T01:48:05.889Z,55.11
2022-10-09T01:49:05.701Z,54.79
2022-10-09T01:50:05.699Z,54.95
2022-10-09T01:51:05.669Z,54.95
2022-10-09T01:52:05.685Z,57.36
2022-10-09T01:53:05.658Z,55.43
2022-10-09T01:54:05.648Z,56.72
2022-10-09T01:55:05.640Z,55.59
2022-10-09T01:56:05.625Z,53.98
2022-10-09T01:57:05.631Z,54.46
2022-10-09T01:58:05.608Z,55.59
2022-10-09T01:59:05.602Z,56.24
2022-10-09T02:00:05.573Z,54.30
2022-10-09T02:01:06.582Z,55.59
2022-10-09T02:02:06.524Z,56.72
2022-10-09T02:03:05.613Z,57.52
2022-10-09T02:04:05.550Z,54.79
2022-10-09T02:05:05.545Z,57.20
2022-10-09T02:06:05.533Z,57.36
2022-10-09T02:07:05.526Z,57.20
2022-10-09T02:08:05.506Z,58.33
2022-10-09T02:09:05.492Z,56.24
2022-10-09T02:10:05.483Z,56.07
2022-10-09T02:11:05.469Z,54.30
2022-10-09T02:12:05.497Z,55.27
2022-10-09T02:13:05.456Z,53.98
2022-10-09T02:14:05.449Z,53.50
2022-10-09T02:15:05.433Z,54.79
2022-10-09T02:16:05.587Z,54.79
2022-10-09T02:17:05.437Z,56.24
2022-10-09T02:18:05.409Z,56.07
2022-10-09T02:19:05.397Z,56.72
2022-10-09T02:20:05.389Z,53.50
2022-10-09T02:21:05.383Z,54.79
2022-10-09T02:22:05.390Z,54.79
2022-10-09T02:23:05.361Z,55.75
2022-10-09T02:24:05.351Z,54.14
2022-10-09T02:25:05.342Z,55.75
2022-10-09T02:26:05.332Z,55.91
2022-10-09T02:27:05.328Z,56.88
2022-10-09T02:28:05.332Z,57.36
2022-10-09T02:29:05.311Z,53.98
2022-10-09T02:30:05.296Z,55.27
2022-10-09T02:31:05.307Z,55.75
2022-10-09T02:32:05.294Z,57.52
2022-10-09T02:33:05.276Z,54.62
2022-10-09T02:34:05.251Z,54.79
2022-10-09T02:35:05.247Z,56.88
2022-10-09T02:36:05.233Z,57.52
2022-10-09T02:37:05.251Z,54.79
2022-10-09T02:38:05.221Z,54.95
2022-10-09T02:39:05.211Z,56.24
2022-10-09T02:40:10.429Z,55.27
2022-10-09T02:41:07.194Z,57.36
2022-10-09T02:42:37.106Z,56.40
2022-10-09T02:43:05.176Z,56.40
2022-10-09T02:44:05.180Z,56.72
2022-10-09T02:45:05.147Z,56.72
2022-10-09T02:46:05.173Z,54.46
2022-10-09T02:47:05.146Z,53.98
2022-10-09T02:48:05.124Z,55.11
2022-10-09T02:49:05.113Z,56.56
2022-10-09T02:50:05.109Z,53.82
2022-10-09T02:51:05.092Z,56.24
2022-10-09T02:52:05.105Z,53.66
2022-10-09T02:53:05.074Z,54.30
2022-10-09T02:54:05.064Z,58.17
2022-10-09T02:55:05.057Z,58.01
2022-10-09T02:56:05.050Z,57.04
2022-10-09T02:57:05.046Z,58.49
2022-10-09T02:58:05.026Z,59.94
2022-10-09T02:59:05.025Z,56.72
2022-10-09T03:00:05.012Z,57.69
2022-10-09T03:01:05.013Z,59.30
2022-10-09T03:02:05.162Z,58.65
2022-10-09T03:03:05.077Z,59.46
2022-10-09T03:04:04.980Z,59.78
2022-10-09T03:05:04.965Z,58.33
2022-10-09T03:06:04.967Z,58.49
2022-10-09T03:07:04.978Z,57.04
2022-10-09T03:08:04.955Z,58.97
2022-10-09T03:09:04.941Z,59.94
2022-10-09T03:10:04.930Z,61.39
2022-10-09T03:11:04.924Z,58.65
2022-10-09T03:12:04.933Z,56.88
2022-10-09T03:13:04.913Z,56.24
2022-10-09T03:14:04.896Z,56.88
2022-10-09T03:15:04.889Z,55.91
2022-10-09T03:16:04.911Z,57.52
2022-10-09T03:17:04.885Z,60.42
2022-10-09T03:18:04.862Z,59.46
2022-10-09T03:19:04.856Z,57.52
2022-10-09T03:20:04.859Z,57.36
2022-10-09T03:21:04.832Z,60.26
2022-10-09T03:22:04.892Z,57.85
2022-10-09T03:23:04.823Z,59.46
2022-10-09T03:24:04.814Z,55.91
2022-10-09T03:25:04.790Z,58.97
2022-10-09T03:26:04.791Z,58.01
2022-10-09T03:27:04.825Z,57.04
2022-10-09T03:28:04.877Z,57.69
2022-10-09T03:29:04.769Z,59.46
2022-10-09T03:30:04.763Z,55.27
2022-10-09T03:31:04.782Z,58.49
2022-10-09T03:32:04.811Z,58.97
2022-10-09T03:33:04.760Z,56.24
2022-10-09T03:34:04.727Z,59.46
2022-10-09T03:35:04.715Z,56.24
2022-10-09T03:36:04.717Z,57.85
2022-10-09T03:37:04.728Z,57.85
2022-10-09T03:38:04.697Z,57.36
2022-10-09T03:39:04.711Z,57.04
2022-10-09T03:40:04.683Z,55.59
2022-10-09T03:41:04.667Z,57.85
2022-10-09T03:42:04.682Z,55.59
2022-10-09T03:43:04.660Z,55.91
2022-10-09T03:44:04.654Z,55.59
2022-10-09T03:45:04.647Z,56.40
2022-10-09T03:46:04.627Z,56.24
2022-10-09T03:47:04.642Z,55.75
2022-10-09T03:48:04.612Z,57.04
2022-10-09T03:49:04.598Z,56.88
2022-10-09T03:50:04.595Z,56.72
2022-10-09T03:51:04.603Z,57.04
2022-10-09T03:52:04.601Z,56.40
2022-10-09T03:53:04.565Z,58.33
2022-10-09T03:54:04.569Z,55.75
2022-10-09T03:55:04.564Z,58.97
2022-10-09T03:56:04.544Z,56.24
2022-10-09T03:57:04.568Z,57.85
2022-10-09T03:58:04.531Z,56.40
2022-10-09T03:59:04.520Z,57.52
2022-10-09T04:00:04.511Z,58.49
2022-10-09T04:01:04.587Z,59.78
2022-10-09T04:02:04.518Z,57.85
2022-10-09T04:03:04.551Z,57.36
2022-10-09T04:04:04.485Z,58.33
2022-10-09T04:05:04.476Z,58.33
2022-10-09T04:06:04.470Z,59.30
2022-10-09T04:07:04.479Z,59.30
2022-10-09T04:08:04.451Z,58.01
2022-10-09T04:09:04.434Z,59.30
2022-10-09T04:10:04.434Z,59.14
2022-10-09T04:11:04.426Z,58.01
2022-10-09T04:12:04.435Z,56.24
2022-10-09T04:13:04.413Z,57.20
2022-10-09T04:14:04.401Z,58.01
2022-10-09T04:15:04.406Z,60.10
2022-10-09T04:16:04.448Z,57.85
2022-10-09T04:17:04.398Z,58.17
2022-10-09T04:18:04.369Z,59.94
2022-10-09T04:19:04.367Z,59.30
2022-10-09T04:20:04.375Z,60.59
2022-10-09T04:21:04.350Z,59.78
2022-10-09T04:22:04.363Z,58.01
2022-10-09T04:23:04.336Z,59.94
2022-10-09T04:24:04.324Z,60.75
2022-10-09T04:25:04.318Z,58.33
2022-10-09T04:26:04.309Z,59.30
2022-10-09T04:27:04.348Z,58.17
2022-10-09T04:28:04.309Z,58.97
2022-10-09T04:29:04.283Z,58.97
2022-10-09T04:30:04.280Z,59.46
2022-10-09T04:31:04.268Z,58.49
2022-10-09T04:32:04.275Z,58.97
2022-10-09T04:33:04.983Z,58.97
2022-10-09T04:34:04.249Z,58.97
2022-10-09T04:35:04.233Z,59.14
2022-10-09T04:36:04.236Z,57.36
2022-10-09T04:37:04.251Z,58.33
2022-10-09T04:38:04.214Z,60.42
2022-10-09T04:39:04.211Z,60.26
2022-10-09T04:40:04.196Z,58.65
2022-10-09T04:41:04.196Z,61.07
2022-10-09T04:42:04.203Z,59.30
2022-10-09T04:43:04.183Z,57.20
2022-10-09T04:44:04.164Z,57.20
2022-10-09T04:45:04.160Z,58.49
2022-10-09T04:46:04.222Z,58.49
2022-10-09T04:47:06.184Z,58.33
2022-10-09T04:48:04.122Z,60.26
2022-10-09T04:49:04.126Z,58.97
2022-10-09T04:50:04.126Z,58.33
2022-10-09T04:51:04.114Z,58.01
2022-10-09T04:52:04.125Z,57.20
2022-10-09T04:53:04.099Z,58.81
2022-10-09T04:54:04.088Z,57.20
2022-10-09T04:55:04.083Z,56.24
2022-10-09T04:56:04.072Z,59.78
2022-10-09T04:57:04.090Z,56.88
2022-10-09T04:58:04.058Z,56.72
2022-10-09T04:59:04.050Z,58.65
2022-10-09T05:00:04.025Z,58.65
2022-10-09T05:01:04.079Z,57.36
2022-10-09T05:02:04.116Z,57.85
2022-10-09T05:03:04.013Z,57.04
2022-10-09T05:04:04.016Z,56.40
2022-10-09T05:05:03.999Z,55.75
2022-10-09T05:06:03.989Z,57.69
2022-10-09T05:07:03.995Z,58.81
2022-10-09T05:08:03.970Z,56.24
2022-10-09T05:09:03.965Z,57.69
2022-10-09T05:10:03.950Z,58.33
2022-10-09T05:11:03.945Z,58.49
2022-10-09T05:12:03.953Z,57.52
2022-10-09T05:13:03.928Z,57.52
2022-10-09T05:14:03.922Z,57.52
2022-10-09T05:15:03.911Z,58.49
2022-10-09T05:16:03.936Z,59.94
2022-10-09T05:17:15.227Z,58.81
2022-10-09T05:18:05.894Z,57.04
2022-10-09T05:19:03.882Z,58.97
2022-10-09T05:20:03.863Z,58.49
2022-10-09T05:21:03.864Z,57.52
2022-10-09T05:22:03.873Z,56.24
2022-10-09T05:23:03.848Z,55.43
2022-10-09T05:24:06.110Z,58.65
2022-10-09T05:25:05.835Z,58.01
2022-10-09T05:26:03.823Z,58.49
2022-10-09T05:27:03.831Z,58.65
2022-10-09T05:28:03.832Z,58.01
2022-10-09T05:29:03.790Z,58.33
2022-10-09T05:30:03.788Z,56.24
2022-10-09T05:31:03.783Z,57.36
2022-10-09T05:32:03.840Z,56.88
2022-10-09T05:33:03.772Z,56.72
2022-10-09T05:34:03.756Z,57.52
2022-10-09T05:35:03.742Z,57.20
2022-10-09T05:36:03.731Z,56.72
2022-10-09T05:37:03.738Z,58.33
2022-10-09T05:38:03.718Z,57.36
2022-10-09T05:39:03.702Z,58.33
2022-10-09T05:40:03.698Z,57.52
2022-10-09T05:41:03.690Z,58.33
2022-10-09T05:42:03.735Z,58.81
2022-10-09T05:43:03.665Z,59.62
2022-10-09T05:44:03.667Z,59.30
2022-10-09T05:45:03.658Z,58.17
2022-10-09T05:46:03.690Z,58.65
2022-10-09T05:47:03.659Z,57.04
2022-10-09T05:48:03.680Z,57.85
2022-10-09T05:49:03.632Z,58.81
2022-10-09T05:50:03.629Z,59.14
2022-10-09T05:51:03.629Z,57.85
2022-10-09T05:52:03.617Z,58.65
2022-10-09T05:53:03.595Z,59.30
2022-10-09T05:54:03.583Z,59.14
2022-10-09T05:55:03.659Z,58.49
2022-10-09T05:56:03.806Z,57.85
2022-10-09T05:57:04.602Z,60.91
2022-10-09T05:58:03.553Z,60.42
2022-10-09T05:59:03.531Z,58.33
2022-10-09T06:00:03.535Z,58.17
2022-10-09T06:01:03.608Z,59.78
2022-10-09T06:02:03.568Z,59.30
2022-10-09T06:03:03.513Z,61.71
2022-10-09T06:04:03.506Z,60.42
2022-10-09T06:05:03.501Z,59.78
2022-10-09T06:06:03.593Z,60.59
2022-10-09T06:07:03.497Z,60.75
2022-10-09T06:08:03.473Z,60.91
2022-10-09T06:09:03.465Z,60.91
2022-10-09T06:10:03.457Z,59.78
2022-10-09T06:11:03.460Z,59.30
2022-10-09T06:12:03.463Z,61.07
2022-10-09T06:13:03.435Z,59.14
2022-10-09T06:14:03.427Z,60.75
2022-10-09T06:15:03.416Z,59.78
2022-10-09T06:16:03.400Z,60.75
2022-10-09T06:17:03.501Z,61.39
2022-10-09T06:18:03.388Z,62.52
2022-10-09T06:19:03.399Z,61.71
2022-10-09T06:20:03.375Z,61.23
2022-10-09T06:21:03.366Z,60.26
2022-10-09T06:22:03.377Z,62.04
2022-10-09T06:23:03.344Z,60.75
2022-10-09T06:24:03.337Z,59.62
2022-10-09T06:25:03.335Z,61.07
2022-10-09T06:26:03.324Z,61.07
2022-10-09T06:27:03.326Z,60.75
2022-10-09T06:28:03.361Z,60.42
2022-10-09T06:29:03.300Z,59.62
2022-10-09T06:30:03.289Z,60.10
2022-10-09T06:31:03.303Z,59.14
2022-10-09T06:32:03.288Z,59.46
2022-10-09T06:33:03.254Z,61.71
2022-10-09T06:34:03.271Z,60.75
2022-10-09T06:35:03.234Z,60.75
2022-10-09T06:36:09.713Z,61.23
2022-10-09T06:37:05.242Z,60.26
2022-10-09T06:38:03.216Z,61.07
2022-10-09T06:39:03.203Z,59.78
2022-10-09T06:40:03.188Z,60.75
2022-10-09T06:41:03.184Z,62.04
2022-10-09T06:42:03.205Z,59.30
2022-10-09T06:43:03.162Z,59.30
2022-10-09T06:44:03.146Z,58.81
2022-10-09T06:45:03.142Z,60.26
2022-10-09T06:46:03.231Z,60.26
2022-10-09T06:47:03.135Z,59.78
2022-10-09T06:48:03.115Z,59.62
2022-10-09T06:49:03.109Z,60.26
2022-10-09T06:50:03.099Z,60.10
2022-10-09T06:51:03.073Z,59.94
2022-10-09T06:52:03.103Z,59.94
2022-10-09T06:53:03.072Z,60.10
2022-10-09T06:54:03.069Z,59.78
2022-10-09T06:55:03.032Z,61.23
2022-10-09T06:56:03.034Z,59.94
2022-10-09T06:57:03.041Z,58.81
2022-10-09T06:58:03.005Z,60.59
2022-10-09T06:59:02.992Z,58.17
2022-10-09T07:00:02.990Z,58.65
2022-10-09T07:01:03.031Z,61.39
2022-10-09T07:02:03.114Z,60.59
2022-10-09T07:03:03.021Z,58.97
2022-10-09T07:04:02.954Z,61.71
2022-10-09T07:05:02.945Z,60.91
2022-10-09T07:06:02.942Z,60.26
2022-10-09T07:07:02.940Z,58.49
2022-10-09T07:08:02.916Z,59.94
2022-10-09T07:09:02.901Z,59.78
2022-10-09T07:10:02.976Z,58.65
2022-10-09T07:11:02.883Z,60.26
2022-10-09T07:12:02.892Z,60.42
2022-10-09T07:13:02.865Z,60.26
2022-10-09T07:14:02.845Z,59.30
2022-10-09T07:15:02.834Z,59.94
2022-10-09T07:16:04.946Z,60.59
2022-10-09T07:17:03.836Z,59.94
2022-10-09T07:18:02.804Z,58.65
2022-10-09T07:19:02.791Z,60.26
2022-10-09T07:20:02.780Z,60.26
2022-10-09T07:21:02.774Z,61.07
2022-10-09T07:22:02.778Z,60.26
2022-10-09T07:23:02.745Z,62.36
2022-10-09T07:24:02.755Z,62.36
2022-10-09T07:25:02.730Z,60.91
2022-10-09T07:26:02.707Z,61.39
2022-10-09T07:27:02.708Z,61.71
2022-10-09T07:28:02.727Z,60.91
2022-10-09T07:29:02.685Z,61.39
2022-10-09T07:30:02.674Z,63.33
2022-10-09T07:31:02.689Z,61.87
2022-10-09T07:32:05.766Z,61.07
2022-10-09T07:33:03.632Z,61.55
2022-10-09T07:34:02.633Z,60.91
2022-10-09T07:35:02.617Z,62.52
2022-10-09T07:36:02.605Z,61.71
2022-10-09T07:37:02.620Z,62.52
2022-10-09T07:38:02.583Z,62.52
2022-10-09T07:39:02.568Z,62.52
2022-10-09T07:40:02.562Z,63.00
2022-10-09T07:41:02.545Z,61.87
2022-10-09T07:42:02.550Z,63.00
2022-10-09T07:43:02.523Z,62.68
2022-10-09T07:44:02.514Z,61.07
2022-10-09T07:45:02.501Z,61.87
2022-10-09T07:46:02.533Z,61.71
2022-10-09T07:47:02.488Z,62.68
2022-10-09T07:48:02.466Z,63.00
2022-10-09T07:49:02.476Z,63.33
2022-10-09T07:50:02.455Z,61.87
2022-10-09T07:51:02.436Z,61.71
2022-10-09T07:52:02.449Z,63.97
2022-10-09T07:53:02.419Z,62.52
2022-10-09T07:54:02.467Z,62.36
2022-10-09T07:55:02.389Z,61.71
2022-10-09T07:56:02.447Z,61.39
2022-10-09T07:57:02.400Z,62.52
2022-10-09T07:58:02.367Z,61.55
2022-10-09T07:59:02.353Z,62.68
2022-10-09T08:00:02.339Z,62.84
2022-10-09T08:01:02.365Z,63.16
2022-10-09T08:02:02.448Z,63.65
2022-10-09T08:03:02.345Z,63.00
2022-10-09T08:04:02.298Z,62.20
2022-10-09T08:05:02.288Z,62.52
2022-10-09T08:06:02.278Z,63.49
2022-10-09T08:07:02.277Z,61.39
2022-10-09T08:08:02.258Z,63.00
2022-10-09T08:09:02.248Z,62.52
2022-10-09T08:10:02.238Z,62.20
2022-10-09T08:11:02.220Z,62.52
2022-10-09T08:12:02.236Z,63.00
2022-10-09T08:13:02.205Z,62.68
2022-10-09T08:14:02.204Z,62.36
2022-10-09T08:15:02.183Z,61.87
2022-10-09T08:16:02.260Z,61.87
2022-10-09T08:17:02.191Z,61.23
2022-10-09T08:18:02.152Z,62.84
2022-10-09T08:19:02.146Z,61.71
2022-10-09T08:20:02.140Z,62.84
2022-10-09T08:21:02.121Z,62.52
2022-10-09T08:22:03.582Z,61.87
2022-10-09T08:23:03.100Z,61.55
2022-10-09T08:24:02.098Z,62.84
2022-10-09T08:25:02.100Z,63.33
2022-10-09T08:26:02.074Z,63.00
2022-10-09T08:27:02.070Z,61.87
2022-10-09T08:28:02.143Z,61.55
2022-10-09T08:29:02.050Z,63.00
2022-10-09T08:30:02.045Z,63.00
2022-10-09T08:31:02.076Z,62.52
2022-10-09T08:32:02.037Z,62.84
2022-10-09T08:33:01.998Z,62.52
2022-10-09T08:34:02.001Z,63.16
2022-10-09T08:35:01.987Z,62.84
2022-10-09T08:36:01.972Z,62.04
2022-10-09T08:37:01.982Z,62.68
2022-10-09T08:38:01.954Z,62.20
2022-10-09T08:39:01.940Z,62.84
2022-10-09T08:40:01.935Z,60.26
2022-10-09T08:41:01.935Z,61.71
2022-10-09T08:42:01.936Z,61.55
2022-10-09T08:43:28.298Z,61.87
2022-10-09T08:44:01.934Z,62.52
2022-10-09T08:45:01.888Z,61.07
2022-10-09T08:46:01.972Z,61.55
2022-10-09T08:47:01.888Z,62.84
2022-10-09T08:48:01.872Z,62.52
2022-10-09T08:49:01.851Z,61.23
2022-10-09T08:50:01.837Z,60.10
2022-10-09T08:51:01.827Z,61.87
2022-10-09T08:52:01.829Z,60.75
2022-10-09T08:53:01.809Z,62.04
2022-10-09T08:54:01.790Z,62.52
2022-10-09T08:55:02.790Z,61.55
2022-10-09T08:56:01.773Z,61.39
2022-10-09T08:57:01.783Z,63.65
2022-10-09T08:58:01.760Z,63.00
2022-10-09T08:59:01.743Z,60.91
2022-10-09T09:00:01.737Z,62.68
2022-10-09T09:01:01.729Z,61.55
2022-10-09T09:02:01.819Z,62.20
2022-10-09T09:03:01.777Z,63.49
2022-10-09T09:04:01.701Z,63.33
2022-10-09T09:05:01.676Z,62.84
2022-10-09T09:06:01.680Z,63.81
2022-10-09T09:07:01.689Z,61.55
2022-10-09T09:08:01.656Z,62.04
2022-10-09T09:09:01.646Z,63.00
2022-10-09T09:10:01.663Z,63.49
2022-10-09T09:11:01.625Z,63.97
2022-10-09T09:12:01.634Z,62.20
2022-10-09T09:13:01.600Z,62.20
2022-10-09T09:14:01.601Z,62.04
2022-10-09T09:15:01.609Z,63.16
2022-10-09T09:16:01.646Z,62.52
2022-10-09T09:17:01.582Z,63.00
2022-10-09T09:18:01.581Z,62.20
2022-10-09T09:19:01.548Z,63.00
2022-10-09T09:20:01.561Z,64.29
2022-10-09T09:21:01.522Z,62.36
2022-10-09T09:22:01.550Z,63.81
2022-10-09T09:23:01.535Z,62.52
2022-10-09T09:24:01.506Z,62.52
2022-10-09T09:25:01.495Z,63.33
2022-10-09T09:26:01.478Z,62.36
2022-10-09T09:27:01.579Z,63.49
2022-10-09T09:28:01.469Z,61.55
2022-10-09T09:29:01.580Z,62.04
2022-10-09T09:30:01.453Z,62.52
2022-10-09T09:31:01.463Z,62.20
2022-10-09T09:32:01.469Z,63.00
2022-10-09T09:33:01.404Z,63.81
2022-10-09T09:34:01.479Z,62.52
2022-10-09T09:35:01.389Z,61.55
2022-10-09T09:36:01.408Z,62.36
2022-10-09T09:37:01.398Z,63.16
2022-10-09T09:38:01.408Z,59.94
2022-10-09T09:41:03.326Z,61.71
2022-10-09T09:42:01.360Z,60.75
2022-10-09T09:43:04.794Z,62.68
2022-10-09T09:44:02.309Z,63.49
2022-10-09T09:45:01.282Z,61.87
2022-10-09T09:46:01.276Z,61.07
2022-10-09T09:47:01.373Z,62.04
2022-10-09T09:48:01.272Z,59.78
2022-10-09T09:49:03.776Z,60.75
2022-10-09T09:50:01.301Z,59.46
2022-10-09T09:51:23.514Z,62.68
2022-10-09T09:52:03.278Z,63.00
2022-10-09T09:53:01.259Z,63.49
2022-10-09T09:54:01.230Z,61.55
2022-10-09T09:55:01.280Z,60.26
2022-10-09T09:56:01.199Z,60.26
2022-10-09T09:57:13.988Z,61.39
2022-10-09T09:58:03.182Z,60.42
2022-10-09T09:59:01.181Z,62.04
2022-10-09T10:00:01.199Z,62.52
2022-10-09T10:01:01.190Z,60.42
2022-10-09T10:02:01.168Z,60.75
2022-10-09T10:03:01.125Z,61.55
2022-10-09T10:04:01.160Z,62.68
2022-10-09T10:05:01.171Z,61.71
2022-10-09T10:06:01.112Z,60.91
2022-10-09T10:07:01.146Z,61.55
2022-10-09T10:08:01.085Z,60.91
2022-10-09T10:09:01.114Z,61.87
2022-10-09T10:10:01.053Z,61.55
2022-10-09T10:11:01.055Z,61.07
2022-10-09T10:12:01.070Z,60.59
2022-10-09T10:13:01.022Z,61.71
2022-10-09T10:14:01.022Z,60.91
2022-10-09T10:15:01.005Z,61.07
2022-10-09T10:16:01.030Z,60.75
2022-10-09T10:17:01.057Z,61.23
2022-10-09T10:18:01.066Z,60.42
2022-10-09T10:19:00.987Z,59.78
2022-10-09T10:20:00.977Z,60.59
2022-10-09T10:21:00.958Z,61.55
2022-10-09T10:22:00.953Z,60.59
2022-10-09T10:23:01.975Z,60.26
2022-10-09T10:25:00.908Z,60.75
2022-10-09T10:26:00.927Z,62.36
2022-10-09T10:27:00.932Z,60.26
2022-10-09T10:28:00.901Z,60.59
2022-10-09T10:29:00.873Z,60.59
2022-10-09T10:30:00.881Z,60.59
2022-10-09T10:31:00.921Z,59.62
2022-10-09T10:32:00.886Z,60.75
2022-10-09T10:33:00.816Z,58.33
2022-10-09T10:34:00.840Z,58.65
2022-10-09T10:35:00.865Z,58.81
2022-10-09T10:36:00.795Z,57.52
2022-10-09T10:37:03.202Z,58.01
2022-10-09T10:38:00.796Z,59.14
2022-10-09T10:39:00.777Z,59.94
2022-10-09T10:40:00.763Z,57.85
2022-10-09T10:41:00.791Z,57.52
2022-10-09T10:42:00.775Z,57.52
2022-10-09T10:43:00.729Z,56.56
2022-10-09T10:44:00.747Z,59.30
2022-10-09T10:45:00.745Z,57.69
2022-10-09T10:46:00.724Z,56.24
2022-10-09T10:47:00.805Z,54.62
2022-10-09T10:48:00.698Z,56.40
2022-10-09T10:49:00.694Z,56.24
2022-10-09T10:50:00.664Z,54.79
2022-10-09T10:51:00.656Z,56.40
2022-10-09T10:52:00.702Z,57.36
2022-10-09T10:53:00.647Z,55.91
2022-10-09T10:54:00.617Z,57.20
2022-10-09T10:55:00.628Z,59.14
2022-10-09T10:56:05.025Z,57.04
2022-10-09T10:57:01.618Z,57.20
2022-10-09T10:58:00.630Z,57.36
2022-10-09T10:59:00.597Z,58.49
2022-10-09T11:00:00.578Z,55.27
2022-10-09T11:01:00.596Z,55.75
2022-10-09T11:02:00.573Z,57.04
2022-10-09T11:03:00.609Z,56.56
2022-10-09T11:04:00.541Z,58.17
2022-10-09T11:05:00.538Z,56.88
2022-10-09T11:06:00.544Z,58.65
2022-10-09T11:07:00.520Z,57.04
2022-10-09T11:08:00.528Z,56.72
2022-10-09T11:09:00.499Z,54.95
2022-10-09T11:10:00.471Z,58.01
2022-10-09T11:11:00.456Z,56.88
2022-10-09T11:12:00.459Z,54.62
2022-10-09T11:13:00.810Z,55.43
2022-10-09T11:14:00.418Z,56.24
2022-10-09T11:15:00.433Z,55.43
2022-10-09T11:16:00.466Z,55.27
2022-10-09T11:17:00.427Z,57.04
2022-10-09T11:18:00.410Z,57.04
2022-10-09T11:19:00.386Z,58.49
2022-10-09T11:20:00.388Z,58.33
2022-10-09T11:21:00.360Z,57.85
2022-10-09T11:22:00.412Z,57.20
2022-10-09T11:23:00.356Z,56.07
2022-10-09T11:24:00.340Z,55.59
2022-10-09T11:25:00.340Z,55.59
2022-10-09T11:26:00.297Z,56.24
2022-10-09T11:27:03.382Z,55.91
2022-10-09T11:28:01.276Z,55.43
2022-10-09T11:29:00.286Z,56.07
2022-10-09T11:30:00.258Z,55.43
2022-10-09T11:31:00.268Z,55.43
2022-10-09T11:32:00.364Z,55.43
2022-10-09T11:33:00.263Z,56.40
2022-10-09T11:34:00.222Z,57.36
2022-10-09T11:35:00.225Z,56.88
2022-10-09T11:36:00.200Z,56.56
2022-10-09T11:37:00.184Z,57.20
2022-10-09T11:38:00.399Z,55.75
2022-10-09T11:39:00.204Z,56.56
2022-10-09T11:40:00.170Z,55.91
2022-10-09T11:41:03.897Z,58.17
2022-10-09T11:42:01.189Z,54.95
2022-10-09T11:43:00.179Z,56.07
2022-10-09T11:44:00.232Z,55.59
2022-10-09T11:45:00.173Z,57.52
2022-10-09T11:46:00.319Z,57.04
2022-10-09T11:47:01.947Z,57.36
2022-10-09T11:48:01.184Z,56.56
2022-10-09T11:49:00.190Z,57.52
2022-10-09T11:50:00.151Z,56.40
2022-10-09T11:51:00.209Z,56.72
2022-10-09T11:52:00.158Z,56.40
2022-10-09T11:53:00.298Z,56.88
2022-10-09T11:54:00.120Z,55.43
2022-10-09T11:55:00.101Z,53.82
2022-10-09T11:56:00.031Z,55.75
2022-10-09T11:57:00.087Z,58.33
2022-10-09T11:58:00.036Z,57.36
2022-10-09T11:59:00.071Z,58.49
2022-10-09T12:00:00.152Z,57.52
2022-10-09T12:01:00.001Z,57.69
2022-10-09T12:02:00.265Z,57.52
2022-10-09T12:03:00.035Z,56.88
2022-10-09T12:04:00.745Z,55.91
2022-10-09T12:05:00.940Z,56.88
2022-10-09T12:06:00.057Z,54.95
2022-10-09T12:07:00.082Z,56.72
2022-10-09T12:08:00.003Z,53.98
2022-10-09T12:08:59.983Z,56.24
2022-10-09T12:09:59.950Z,53.98
2022-10-09T12:10:59.892Z,55.59
2022-10-09T12:11:59.936Z,54.79
2022-10-09T12:12:59.961Z,56.07
2022-10-09T12:13:59.921Z,56.40
2022-10-09T12:14:59.887Z,58.17
2022-10-09T12:15:59.875Z,58.33
2022-10-09T12:16:59.982Z,57.04
2022-10-09T12:17:59.782Z,55.91
2022-10-09T12:18:59.780Z,56.72
2022-10-09T12:20:01.188Z,55.91
2022-10-09T12:21:00.744Z,55.27
2022-10-09T12:21:59.784Z,54.95
2022-10-09T12:23:26.339Z,54.46
2022-10-09T12:24:01.703Z,55.11
2022-10-09T12:24:59.721Z,56.07
2022-10-09T12:25:59.741Z,54.30
2022-10-09T12:26:59.717Z,55.11
2022-10-09T12:27:59.666Z,56.24
2022-10-09T12:28:59.662Z,57.85
2022-10-09T12:29:59.670Z,57.52
2022-10-09T12:30:59.729Z,54.62
2022-10-09T12:31:59.620Z,56.88
2022-10-09T12:32:59.639Z,56.40
2022-10-09T12:33:59.652Z,55.43
2022-10-09T12:34:59.609Z,58.49
2022-10-09T12:35:59.644Z,58.33
2022-10-09T12:36:59.571Z,57.52
2022-10-09T12:37:59.599Z,57.52
2022-10-09T12:38:59.579Z,57.85
2022-10-09T12:39:59.550Z,57.52
2022-10-09T12:40:59.602Z,55.75
2022-10-09T12:41:59.556Z,57.04
2022-10-09T12:42:59.575Z,57.52
2022-10-09T12:43:59.523Z,57.69
2022-10-09T12:44:59.524Z,55.27
2022-10-09T12:45:59.539Z,56.40
2022-10-09T12:46:59.501Z,55.75
2022-10-09T12:47:59.467Z,56.24
2022-10-09T12:48:59.483Z,57.36
2022-10-09T12:49:59.482Z,55.11
2022-10-09T12:50:59.471Z,55.91
2022-10-09T12:51:59.423Z,55.91
2022-10-09T12:52:59.496Z,55.59
2022-10-09T12:53:59.432Z,57.69
2022-10-09T12:54:59.408Z,56.72